DRRN/NIM METAR and TAF weather

Enter ICAO airport designator
Station Type Date Time Source
DRRN METAR 2022/01/25 04:00 UTC NOAA

DRRN 250400Z 03011KT CAVOK 19/M07 Q1013 NOSIG


Station Type Date Time Source
DRRN Decoded METAR 2022/01/25 04:00 UTC NOAA

Niamey-Aero, Niger (DRRN) 13-29N 002-10E 227M
Jan 24, 2022 - 11:00 PM EST / 2022.01.25 0400 UTC
Wind: from the NNE (030 degrees) at 13 MPH (11 KT):0
Visibility: greater than 7 mile(s):0
Temperature: 66 F (19 C)
Dew Point: 19 F (-7 C)
Relative Humidity: 16%
Pressure (altimeter): 29.91 in. Hg (1013 hPa)
ob: DRRN 250400Z 03011KT CAVOK 19/M07 Q1013 NOSIG
cycle: 4

Station Type Date Time Source
DRRN TAF 2022/01/24 18:22 UTC NOAA

TAF DRRN 241700Z 2418/2524 04008KT 8000 NSC
TEMPO 2506/2508 4800 DU
TEMPO 2509/2512 08020KT 4000 BLDU
TEMPO 2517/2520 3500 DU

Example: see airport list